Time;durP1;ratioP1;P1;durP2;ratioP2;P2;SDS_P1;SDS_P2;PMS_P1;PMS_P2;Temp;Humidity;BMP_temperature;BMP_pressure;BME280_temperature;BME280_humidity;BME280_pressure;Samples;Min_cycle;Max_cycle;Signal;HPM_P1;HPM_P2
2023/08/06 00:00:36;;;;;;;;;;;;;;;22.49;28.54;96831.16;4925712;29;1205;-76
2023/08/06 00:03:02;;;;;;;;;;;;;;;22.46;28.41;96829.25;4941341;29;1512;-76
2023/08/06 00:05:27;;;;;;;;;;;;;;;22.38;28.45;96825.19;4957691;29;998;-76
2023/08/06 00:07:53;;;;;;;;;;;;;;;22.21;29.01;96819.13;4941339;29;1914;-76
2023/08/06 00:10:18;;;;;;;;;;;;;;;22.40;28.54;96811.34;4957542;29;880;-76
2023/08/06 00:12:44;;;;;;;;;;;;;;;22.65;28.08;96805.22;4941439;29;1289;-76
2023/08/06 00:15:10;;;;;;;;;;;;;;;22.60;28.35;96803.06;4955859;28;948;-77
2023/08/06 00:17:35;;;;;;;;;;;;;;;22.39;28.59;96798.44;4945577;28;1176;-77
2023/08/06 00:20:04;;;;;;;;;;;;;;;22.34;28.64;96797.03;4937692;29;1016;-76
2023/08/06 00:22:31;;;;;;;;;;;;;;;22.16;29.21;96797.88;4938475;29;1044;-76
2023/08/06 00:24:57;;;;;;;;;;;;;;;22.02;29.37;96792.88;4921966;29;1125;-76
2023/08/06 00:27:23;;;;;;;;;;;;;;;22.31;28.55;96792.31;4938287;29;1000;-76
2023/08/06 00:29:48;;;;;;;;;;;;;;;22.48;28.53;96790.66;4906035;29;1923;-77
2023/08/06 00:32:14;;;;;;;;;;;;;;;22.59;28.36;96784.47;4890519;29;1134;-76
2023/08/06 00:34:39;;;;;;;;;;;;;;;22.44;28.74;96786.44;4906088;29;1082;-77
2023/08/06 00:37:05;;;;;;;;;;;;;;;22.42;28.58;96780.47;4937628;29;1001;-76
2023/08/06 00:39:31;;;;;;;;;;;;;;;22.40;28.56;96785.84;4906053;29;1513;-75
2023/08/06 00:41:58;;;;;;;;;;;;;;;22.16;29.16;96783.72;4921829;29;1043;-76
2023/08/06 00:44:23;;;;;;;;;;;;;;;22.40;28.70;96783.00;4890683;29;1151;-76
2023/08/06 00:46:49;;;;;;;;;;;;;;;22.54;28.64;96777.41;4905691;29;1085;-76
2023/08/06 00:49:14;;;;;;;;;;;;;;;22.43;28.57;96765.03;4905985;29;1970;-75
2023/08/06 00:51:40;;;;;;;;;;;;;;;22.56;28.44;96766.38;4936183;29;949;-76
2023/08/06 00:54:06;;;;;;;;;;;;;;;22.56;28.55;96762.75;4956977;29;891;-77
2023/08/06 00:56:32;;;;;;;;;;;;;;;22.36;28.59;96771.84;4958147;29;880;-76
2023/08/06 00:58:57;;;;;;;;;;;;;;;22.22;29.10;96775.34;4957801;29;1117;-76
2023/08/06 01:01:23;;;;;;;;;;;;;;;22.33;29.04;96772.81;4957661;29;906;-76
2023/08/06 01:03:48;;;;;;;;;;;;;;;22.16;29.05;96780.88;4958702;28;864;-76
2023/08/06 01:06:14;;;;;;;;;;;;;;;22.33;28.99;96779.25;4957211;29;1064;-76
2023/08/06 01:08:40;;;;;;;;;;;;;;;22.12;29.14;96768.94;4956946;29;1914;-76
2023/08/06 01:11:12;;;;;;;;;;;;;;;22.54;28.58;96762.47;4957685;29;1505;-76
2023/08/06 01:13:46;;;;;;;;;;;;;;;22.39;28.89;96764.44;4957388;29;1341;-76
2023/08/06 01:16:12;;;;;;;;;;;;;;;22.38;28.89;96751.50;4958527;29;1067;-76
2023/08/06 01:18:39;;;;;;;;;;;;;;;22.30;28.73;96751.88;4957288;29;1155;-76
2023/08/06 01:21:04;;;;;;;;;;;;;;;22.39;28.79;96747.44;4937038;29;940;-76
2023/08/06 01:23:30;;;;;;;;;;;;;;;22.22;28.88;96744.19;4921203;29;1117;-75
2023/08/06 01:25:56;;;;;;;;;;;;;;;22.23;29.03;96738.06;4952888;28;1269;-77
2023/08/06 01:28:23;;;;;;;;;;;;;;;22.32;29.00;96732.31;4952813;29;1973;-76
2023/08/06 01:30:48;;;;;;;;;;;;;;;22.35;28.78;96722.88;4952593;29;961;-76
2023/08/06 01:33:14;;;;;;;;;;;;;;;22.18;29.04;96723.78;4936865;29;1100;-76
2023/08/06 01:35:40;;;;;;;;;;;;;;;22.51;28.44;96716.00;4936891;29;1115;-77
2023/08/06 01:38:06;;;;;;;;;;;;;;;22.59;28.35;96714.38;4953186;29;1189;-76
2023/08/06 01:40:32;;;;;;;;;;;;;;;22.47;28.61;96708.94;4936693;29;1254;-76
2023/08/06 01:42:58;;;;;;;;;;;;;;;22.59;28.33;96708.72;4937014;29;1160;-76
2023/08/06 01:45:23;;;;;;;;;;;;;;;22.46;28.73;96704.56;4952764;29;1215;-76
2023/08/06 01:47:49;;;;;;;;;;;;;;;22.70;28.44;96701.72;4936894;29;1989;-76
2023/08/06 01:50:14;;;;;;;;;;;;;;;22.35;28.70;96700.19;4936871;29;942;-76
2023/08/06 01:52:40;;;;;;;;;;;;;;;22.51;28.44;96692.56;4923720;29;1121;-76
2023/08/06 01:55:06;;;;;;;;;;;;;;;22.39;28.62;96693.59;4940364;29;868;-76
2023/08/06 01:57:31;;;;;;;;;;;;;;;22.45;28.43;96700.16;4940215;29;963;-76
2023/08/06 01:59:57;;;;;;;;;;;;;;;22.32;28.74;96692.66;4939820;29;1194;-75
2023/08/06 02:02:23;;;;;;;;;;;;;;;22.42;28.71;96698.28;4924195;29;1114;-76
2023/08/06 02:04:49;;;;;;;;;;;;;;;22.33;28.87;96694.25;4940193;29;1074;-76
2023/08/06 02:07:15;;;;;;;;;;;;;;;22.48;28.59;96688.63;4956759;29;1066;-76
2023/08/06 02:09:41;;;;;;;;;;;;;;;22.56;28.49;96683.38;4956837;29;1977;-75
2023/08/06 02:12:07;;;;;;;;;;;;;;;22.72;28.23;96682.94;4973141;28;1128;-76
2023/08/06 02:14:32;;;;;;;;;;;;;;;22.49;28.48;96676.03;4956723;29;1366;-75
2023/08/06 02:16:58;;;;;;;;;;;;;;;22.47;28.69;96675.72;4917272;29;1193;-76
2023/08/06 02:19:25;;;;;;;;;;;;;;;22.37;28.71;96660.03;4917382;29;1272;-76
2023/08/06 02:21:50;;;;;;;;;;;;;;;22.41;28.63;96671.97;4917351;29;949;-76
2023/08/06 02:24:16;;;;;;;;;;;;;;;22.27;29.10;96655.69;4917860;29;1286;-76
2023/08/06 02:26:41;;;;;;;;;;;;;;;22.41;28.57;96654.97;4901820;29;1247;-76
2023/08/06 02:29:07;;;;;;;;;;;;;;;22.40;28.67;96655.47;4901455;29;1914;-77
2023/08/06 02:31:33;;;;;;;;;;;;;;;22.65;28.46;96654.97;4901765;29;1065;-77
2023/08/06 02:33:58;;;;;;;;;;;;;;;22.51;28.90;96652.88;4886096;29;1127;-76
2023/08/06 02:36:24;;;;;;;;;;;;;;;22.43;28.81;96665.81;4917431;29;1121;-76
2023/08/06 02:38:50;;;;;;;;;;;;;;;22.53;28.71;96668.09;4919123;29;1055;-76
2023/08/06 02:41:15;;;;;;;;;;;;;;;22.43;29.03;96663.78;4905181;29;1133;-76
2023/08/06 02:43:41;;;;;;;;;;;;;;;22.35;29.37;96665.41;4904657;29;1036;-76
2023/08/06 02:46:07;;;;;;;;;;;;;;;22.59;28.90;96671.09;4888872;29;1174;-76
2023/08/06 02:48:33;;;;;;;;;;;;;;;22.50;29.18;96673.97;4873850;29;1903;-76
2023/08/06 02:50:59;;;;;;;;;;;;;;;22.43;29.40;96680.78;4889584;29;1298;-76
2023/08/06 02:53:25;;;;;;;;;;;;;;;22.38;29.59;96683.50;4908559;29;1350;-76
2023/08/06 02:55:51;;;;;;;;;;;;;;;22.53;29.24;96678.66;4942332;29;1246;-76
2023/08/06 02:58:22;;;;;;;;;;;;;;;22.47;29.38;96683.44;4942495;29;1464;-76
2023/08/06 03:01:00;;;;;;;;;;;;;;;22.58;29.18;96689.34;4926392;29;1272;-76
2023/08/06 03:03:26;;;;;;;;;;;;;;;22.56;29.24;96689.06;4939517;29;1185;-76
2023/08/06 03:05:57;;;;;;;;;;;;;;;22.62;29.28;96689.94;4939421;29;1420;-76
2023/08/06 03:08:39;;;;;;;;;;;;;;;22.40;29.69;96697.97;4923392;29;1899;-76
2023/08/06 03:11:05;;;;;;;;;;;;;;;22.47;29.41;96691.94;4923560;29;1073;-76
2023/08/06 03:13:31;;;;;;;;;;;;;;;22.58;29.46;96686.50;4923364;29;949;-76
2023/08/06 03:15:58;;;;;;;;;;;;;;;22.36;29.70;96692.47;4923560;29;1199;-76
2023/08/06 03:18:25;;;;;;;;;;;;;;;22.41;29.69;96693.88;4923178;29;976;-76
2023/08/06 03:20:51;;;;;;;;;;;;;;;22.50;29.55;96696.66;4935922;29;1166;-77
2023/08/06 03:23:17;;;;;;;;;;;;;;;22.70;29.05;96699.66;4941941;29;1161;-76
2023/08/06 03:25:44;;;;;;;;;;;;;;;22.74;29.13;96699.47;4926513;29;1546;-76
2023/08/06 03:28:09;;;;;;;;;;;;;;;22.59;29.37;96700.22;4957597;29;1975;-76
2023/08/06 03:30:35;;;;;;;;;;;;;;;22.55;29.40;96687.50;4957327;29;1356;-76
2023/08/06 03:33:01;;;;;;;;;;;;;;;22.68;28.92;96685.16;4956335;29;1304;-76
2023/08/06 03:35:27;;;;;;;;;;;;;;;22.63;29.43;96683.00;4938414;29;1331;-77
2023/08/06 03:37:52;;;;;;;;;;;;;;;22.74;29.03;96688.94;4971345;28;1282;-76
2023/08/06 03:40:18;;;;;;;;;;;;;;;22.53;29.34;96690.00;4925281;29;1277;-77
2023/08/06 03:42:44;;;;;;;;;;;;;;;22.79;28.78;96702.41;4925145;29;1323;-76
2023/08/06 03:45:10;;;;;;;;;;;;;;;22.60;29.30;96701.00;4957144;29;1282;-76
2023/08/06 03:47:37;;;;;;;;;;;;;;;22.75;29.15;96699.00;4941850;29;1437;-76
2023/08/06 03:50:03;;;;;;;;;;;;;;;22.72;29.14;96697.13;4941539;29;1914;-76
2023/08/06 03:52:29;;;;;;;;;;;;;;;22.40;29.64;96680.97;4926108;29;1062;-75
2023/08/06 03:54:55;;;;;;;;;;;;;;;22.39;29.67;96679.41;4959033;29;907;-77
2023/08/06 03:57:21;;;;;;;;;;;;;;;22.49;29.73;96678.09;4942797;29;1259;-76
2023/08/06 03:59:48;;;;;;;;;;;;;;;22.71;29.34;96672.88;4942379;29;1326;-76
2023/08/06 04:02:13;;;;;;;;;;;;;;;22.62;29.20;96675.78;4942672;29;1332;-76
2023/08/06 04:04:39;;;;;;;;;;;;;;;22.66;29.46;96676.38;4926827;29;1165;-75
2023/08/06 04:07:05;;;;;;;;;;;;;;;22.63;29.41;96677.34;4942540;29;927;-76
2023/08/06 04:09:30;;;;;;;;;;;;;;;22.72;29.13;96680.09;4958117;29;1987;-77
2023/08/06 04:11:58;;;;;;;;;;;;;;;22.54;29.45;96680.25;4959527;28;999;-77
2023/08/06 04:14:24;;;;;;;;;;;;;;;22.73;28.96;96676.00;4958123;29;1202;-77
2023/08/06 04:16:49;;;;;;;;;;;;;;;22.89;29.00;96677.63;4958346;29;868;-76
2023/08/06 04:19:15;;;;;;;;;;;;;;;23.02;28.65;96669.66;4937784;29;955;-76
2023/08/06 04:21:40;;;;;;;;;;;;;;;22.73;29.19;96681.66;4921791;29;1157;-76
2023/08/06 04:24:06;;;;;;;;;;;;;;;22.69;29.26;96678.25;4921620;29;1352;-76
2023/08/06 04:26:32;;;;;;;;;;;;;;;22.44;29.94;96690.09;4906223;29;1077;-76
2023/08/06 04:28:57;;;;;;;;;;;;;;;22.52;29.73;96682.78;4905681;29;1907;-76
2023/08/06 04:31:23;;;;;;;;;;;;;;;22.67;29.59;96675.09;4905724;29;1110;-76
2023/08/06 04:33:49;;;;;;;;;;;;;;;22.69;29.29;96672.59;4905588;29;1267;-75
2023/08/06 04:36:16;;;;;;;;;;;;;;;22.84;29.28;96681.88;4902661;29;1296;-77
2023/08/06 04:38:44;;;;;;;;;;;;;;;22.63;29.56;96680.94;4918472;29;981;-76
2023/08/06 04:41:11;;;;;;;;;;;;;;;22.74;29.23;96666.25;4901949;29;1279;-76
2023/08/06 04:43:37;;;;;;;;;;;;;;;22.75;29.18;96653.63;4899476;29;1251;-75
2023/08/06 04:46:02;;;;;;;;;;;;;;;22.85;29.19;96652.28;4868699;29;1204;-77
2023/08/06 04:48:28;;;;;;;;;;;;;;;22.77;29.21;96642.56;4883912;29;1986;-76
2023/08/06 04:50:54;;;;;;;;;;;;;;;22.91;28.90;96643.13;4928725;29;857;-77
2023/08/06 04:53:20;;;;;;;;;;;;;;;22.75;29.26;96638.66;4883511;29;1040;-76
2023/08/06 04:55:45;;;;;;;;;;;;;;;22.91;29.12;96637.44;4899133;29;1059;-77
2023/08/06 04:58:11;;;;;;;;;;;;;;;22.86;28.82;96633.22;4899131;29;959;-76
2023/08/06 05:00:37;;;;;;;;;;;;;;;22.84;29.01;96636.50;4867506;29;1194;-77
2023/08/06 05:03:03;;;;;;;;;;;;;;;23.01;28.92;96627.59;4898759;29;1046;-76
2023/08/06 05:05:28;;;;;;;;;;;;;;;22.92;28.96;96627.66;4884116;29;1241;-75
2023/08/06 05:07:54;;;;;;;;;;;;;;;22.78;29.02;96627.13;4899525;29;936;-76
2023/08/06 05:10:19;;;;;;;;;;;;;;;23.12;28.77;96622.09;4899287;29;1969;-77
2023/08/06 05:12:45;;;;;;;;;;;;;;;22.71;29.34;96627.50;4884307;29;875;-76
2023/08/06 05:15:11;;;;;;;;;;;;;;;22.58;29.72;96618.47;4913181;29;934;-77
2023/08/06 05:17:36;;;;;;;;;;;;;;;22.65;29.60;96629.44;4902712;29;986;-76
2023/08/06 05:20:02;;;;;;;;;;;;;;;22.79;29.41;96627.91;4917740;29;982;-76
2023/08/06 05:22:28;;;;;;;;;;;;;;;22.90;29.18;96628.16;4902493;29;951;-75
2023/08/06 05:24:53;;;;;;;;;;;;;;;22.81;29.32;96631.81;4902478;29;980;-76
2023/08/06 05:27:19;;;;;;;;;;;;;;;22.99;28.96;96639.41;4918085;29;990;-78
2023/08/06 05:29:45;;;;;;;;;;;;;;;23.01;29.05;96633.25;4921322;29;1907;-76
2023/08/06 05:32:10;;;;;;;;;;;;;;;22.94;28.86;96633.63;4959006;28;984;-76
2023/08/06 05:34:36;;;;;;;;;;;;;;;22.80;29.11;96618.94;4973150;28;1455;-77
2023/08/06 05:37:02;;;;;;;;;;;;;;;22.86;29.18;96622.63;4957030;29;970;-77
2023/08/06 05:39:27;;;;;;;;;;;;;;;22.88;29.06;96614.44;4958311;28;884;-77
2023/08/06 05:41:53;;;;;;;;;;;;;;;22.85;29.32;96623.13;4958470;28;962;-77
2023/08/06 05:44:19;;;;;;;;;;;;;;;22.65;29.80;96615.28;4956891;29;1312;-77
2023/08/06 05:46:44;;;;;;;;;;;;;;;22.73;29.57;96612.84;4944076;28;1178;-76
2023/08/06 05:49:12;;;;;;;;;;;;;;;22.75;29.35;96613.94;4927327;28;1972;-77
2023/08/06 05:51:38;;;;;;;;;;;;;;;23.00;29.13;96626.00;4960332;28;923;-76
2023/08/06 05:54:03;;;;;;;;;;;;;;;23.01;29.08;96624.75;4977388;28;962;-77
2023/08/06 05:56:29;;;;;;;;;;;;;;;22.82;29.41;96615.59;4977358;28;859;-76
2023/08/06 05:58:54;;;;;;;;;;;;;;;22.74;29.38;96609.53;4977782;28;937;-77
2023/08/06 06:01:20;;;;;;;;;;;;;;;22.98;29.03;96611.53;4977677;28;827;-76
2023/08/06 06:03:45;;;;;;;;;;;;;;;22.85;29.62;96604.06;4976962;28;988;-77
2023/08/06 06:06:11;;;;;;;;;;;;;;;22.98;29.38;96611.53;4977253;28;940;-77
2023/08/06 06:08:36;;;;;;;;;;;;;;;22.95;29.47;96606.81;4977562;28;1910;-77
2023/08/06 06:11:02;;;;;;;;;;;;;;;23.12;29.05;96611.53;4943254;28;935;-77
2023/08/06 06:13:27;;;;;;;;;;;;;;;23.13;29.02;96618.00;4978737;28;838;-75
2023/08/06 06:15:56;;;;;;;;;;;;;;;22.88;29.58;96608.00;4981100;28;936;-77
2023/08/06 06:18:22;;;;;;;;;;;;;;;22.92;29.50;96607.81;4980557;28;1266;-77
2023/08/06 06:20:47;;;;;;;;;;;;;;;23.27;28.73;96605.09;4963635;28;992;-76
2023/08/06 06:23:14;;;;;;;;;;;;;;;22.98;29.30;96595.28;4963599;28;932;-77
2023/08/06 06:25:43;;;;;;;;;;;;;;;22.69;29.73;96601.69;4963606;28;996;-77
2023/08/06 06:28:09;;;;;;;;;;;;;;;22.86;29.58;96605.63;4963321;28;1989;-77
2023/08/06 06:30:34;;;;;;;;;;;;;;;22.81;29.75;96614.03;4963170;28;914;-77
2023/08/06 06:33:00;;;;;;;;;;;;;;;23.02;29.29;96612.13;4980653;28;958;-77
2023/08/06 06:35:25;;;;;;;;;;;;;;;22.96;29.58;96619.75;4963079;28;1054;-77
2023/08/06 06:37:51;;;;;;;;;;;;;;;22.93;29.68;96615.81;4939414;29;1048;-77
2023/08/06 06:40:17;;;;;;;;;;;;;;;23.04;29.58;96609.56;4920700;29;1735;-76
2023/08/06 06:42:42;;;;;;;;;;;;;;;23.07;29.53;96602.94;4905079;29;974;-77
2023/08/06 06:45:09;;;;;;;;;;;;;;;22.93;29.70;96609.38;4904974;29;1240;-76
2023/08/06 06:47:34;;;;;;;;;;;;;;;22.97;29.68;96615.66;4920557;29;964;-77
2023/08/06 06:50:00;;;;;;;;;;;;;;;22.96;29.55;96608.41;4920718;29;1922;-77
2023/08/06 06:52:25;;;;;;;;;;;;;;;22.95;29.79;96612.50;4889269;29;1142;-77
2023/08/06 06:54:51;;;;;;;;;;;;;;;22.94;29.62;96616.59;4889072;29;1111;-76
2023/08/06 06:57:17;;;;;;;;;;;;;;;23.18;29.47;96608.81;4904584;29;1070;-77
2023/08/06 06:59:42;;;;;;;;;;;;;;;23.32;29.09;96608.03;4904619;29;1005;-76
2023/08/06 07:02:08;;;;;;;;;;;;;;;23.19;29.16;96604.69;4882424;29;1215;-76
2023/08/06 07:04:33;;;;;;;;;;;;;;;22.93;29.80;96603.69;4867280;29;1163;-77
2023/08/06 07:06:59;;;;;;;;;;;;;;;22.74;30.15;96606.69;4867189;29;954;-76
2023/08/06 07:09:24;;;;;;;;;;;;;;;23.07;29.64;96603.72;4896618;29;1915;-77
2023/08/06 07:11:50;;;;;;;;;;;;;;;22.93;29.78;96600.88;4915025;29;1020;-76
2023/08/06 07:14:16;;;;;;;;;;;;;;;23.23;29.34;96610.94;4904486;29;918;-76
2023/08/06 07:16:42;;;;;;;;;;;;;;;23.28;29.36;96604.59;4882568;29;939;-77
2023/08/06 07:19:07;;;;;;;;;;;;;;;23.12;29.57;96607.94;4882683;29;980;-75
2023/08/06 07:21:33;;;;;;;;;;;;;;;22.99;29.83;96607.41;4882549;29;1068;-77
2023/08/06 07:23:59;;;;;;;;;;;;;;;23.14;29.60;96611.03;4881940;29;1075;-76
2023/08/06 07:26:25;;;;;;;;;;;;;;;23.16;29.62;96605.69;4882522;29;938;-77
2023/08/06 07:28:50;;;;;;;;;;;;;;;23.06;29.72;96609.88;4882160;29;1907;-76
2023/08/06 07:31:16;;;;;;;;;;;;;;;22.92;29.82;96613.47;4863584;29;1235;-77
2023/08/06 07:33:41;;;;;;;;;;;;;;;22.88;30.31;96608.78;4877557;29;970;-76
2023/08/06 07:36:08;;;;;;;;;;;;;;;22.77;30.24;96605.69;4882234;29;1105;-76
2023/08/06 07:38:33;;;;;;;;;;;;;;;22.98;30.01;96605.84;4882375;29;1030;-77
2023/08/06 07:41:01;;;;;;;;;;;;;;;23.02;29.74;96607.22;4882364;29;1014;-77
2023/08/06 07:43:26;;;;;;;;;;;;;;;23.02;29.82;96612.13;4882078;29;865;-76
2023/08/06 07:45:52;;;;;;;;;;;;;;;23.11;29.79;96612.81;4890501;29;1196;-77
2023/08/06 07:48:17;;;;;;;;;;;;;;;22.95;30.22;96612.50;4914911;29;1902;-76
2023/08/06 07:50:49;;;;;;;;;;;;;;;23.10;29.83;96601.94;4904032;29;908;-76
2023/08/06 07:53:15;;;;;;;;;;;;;;;23.08;29.90;96599.59;4919763;29;1157;-77
2023/08/06 07:55:41;;;;;;;;;;;;;;;23.12;29.69;96600.19;4903498;29;937;-76
2023/08/06 07:58:06;;;;;;;;;;;;;;;22.93;30.19;96603.69;4919979;29;1028;-77
2023/08/06 08:00:33;;;;;;;;;;;;;;;23.01;30.01;96610.56;4887824;29;971;-77
2023/08/06 08:02:58;;;;;;;;;;;;;;;22.79;30.18;96606.00;4888228;29;1138;-76
2023/08/06 08:05:24;;;;;;;;;;;;;;;22.93;30.23;96609.38;4903260;29;1028;-77
2023/08/06 08:07:49;;;;;;;;;;;;;;;23.15;29.76;96615.44;4927437;28;1056;-76
2023/08/06 08:10:15;;;;;;;;;;;;;;;23.18;29.67;96620.16;4928236;28;1910;-77
2023/08/06 08:12:41;;;;;;;;;;;;;;;23.01;30.03;96621.91;4945246;28;801;-76
2023/08/06 08:15:06;;;;;;;;;;;;;;;22.88;30.28;96630.69;4978178;28;852;-77
2023/08/06 08:17:32;;;;;;;;;;;;;;;23.14;29.94;96630.91;4928295;28;1281;-77
2023/08/06 08:19:58;;;;;;;;;;;;;;;23.01;30.18;96621.91;4929136;28;1110;-77
2023/08/06 08:22:23;;;;;;;;;;;;;;;22.92;30.44;96617.09;4945532;28;917;-78
2023/08/06 08:24:49;;;;;;;;;;;;;;;22.98;30.07;96622.88;4978347;28;968;-76
2023/08/06 08:27:14;;;;;;;;;;;;;;;22.80;30.44;96624.59;4961559;28;854;-77
2023/08/06 08:29:40;;;;;;;;;;;;;;;22.73;30.83;96613.59;4944431;28;1914;-77
2023/08/06 08:32:07;;;;;;;;;;;;;;;22.77;30.64;96605.69;4978275;28;994;-77
2023/08/06 08:34:32;;;;;;;;;;;;;;;22.98;30.20;96606.63;4960774;28;918;-77
2023/08/06 08:36:58;;;;;;;;;;;;;;;23.02;30.24;96606.44;4977308;28;882;-77
2023/08/06 08:39:24;;;;;;;;;;;;;;;23.17;29.93;96595.09;4960888;28;1145;-77
2023/08/06 08:41:49;;;;;;;;;;;;;;;23.07;30.05;96591.59;4929656;28;1156;-76
2023/08/06 08:44:15;;;;;;;;;;;;;;;23.07;29.98;96591.59;4945233;28;1216;-77
2023/08/06 08:46:41;;;;;;;;;;;;;;;23.05;30.13;96588.44;4958197;29;1186;-76
2023/08/06 08:49:07;;;;;;;;;;;;;;;23.14;30.11;96602.53;4926266;29;1994;-76
2023/08/06 08:51:35;;;;;;;;;;;;;;;23.25;29.72;96593.44;4941685;29;916;-77
2023/08/06 08:54:02;;;;;;;;;;;;;;;23.22;29.96;96598.03;4925880;29;1174;-76
2023/08/06 08:56:28;;;;;;;;;;;;;;;23.38;29.65;96593.91;4942166;29;861;-77
2023/08/06 08:58:55;;;;;;;;;;;;;;;23.27;29.80;96594.50;4941039;29;1006;-77
2023/08/06 09:01:21;;;;;;;;;;;;;;;23.25;29.82;96594.22;4958834;29;989;-77
2023/08/06 09:03:47;;;;;;;;;;;;;;;23.10;30.10;96596.25;4941740;29;957;-76
2023/08/06 09:06:12;;;;;;;;;;;;;;;22.97;30.22;96592.94;4942305;29;809;-76
2023/08/06 09:08:39;;;;;;;;;;;;;;;22.97;30.51;96595.78;4941689;29;1919;-76
2023/08/06 09:11:05;;;;;;;;;;;;;;;23.14;30.24;96586.28;4941575;29;1023;-76
2023/08/06 09:13:30;;;;;;;;;;;;;;;22.98;30.35;96581.09;4909939;29;965;-77
2023/08/06 09:15:56;;;;;;;;;;;;;;;22.84;30.51;96576.94;4941308;29;1243;-77
2023/08/06 09:18:26;;;;;;;;;;;;;;;23.17;30.26;96576.03;4941052;29;852;-77
2023/08/06 09:20:51;;;;;;;;;;;;;;;23.02;30.41;96580.91;4909912;29;1236;-77
2023/08/06 09:23:17;;;;;;;;;;;;;;;23.01;30.48;96570.84;4925284;29;795;-77
2023/08/06 09:25:42;;;;;;;;;;;;;;;23.11;30.32;96558.91;4941078;29;883;-77
2023/08/06 09:28:08;;;;;;;;;;;;;;;23.12;30.41;96554.78;4940181;29;1910;-76
2023/08/06 09:30:35;;;;;;;;;;;;;;;23.13;30.17;96545.00;4940977;29;867;-76
2023/08/06 09:33:01;;;;;;;;;;;;;;;23.06;30.56;96542.56;4941450;29;886;-77
2023/08/06 09:35:30;;;;;;;;;;;;;;;23.07;30.32;96551.88;4925469;29;1229;-76
2023/08/06 09:37:55;;;;;;;;;;;;;;;23.06;30.45;96550.31;4941301;29;925;-76
2023/08/06 09:40:24;;;;;;;;;;;;;;;23.11;30.58;96566.66;4941474;29;1185;-77
2023/08/06 09:42:50;;;;;;;;;;;;;;;23.11;30.54;96558.13;4958937;29;941;-77
2023/08/06 09:45:16;;;;;;;;;;;;;;;23.08;30.40;96550.59;4962549;28;1154;-77
2023/08/06 09:47:41;;;;;;;;;;;;;;;23.04;30.40;96552.84;4979855;28;894;-76
2023/08/06 09:50:15;;;;;;;;;;;;;;;22.97;30.68;96547.56;4981280;28;1910;-76
2023/08/06 09:52:41;;;;;;;;;;;;;;;23.15;30.63;96553.03;4981455;28;870;-76
2023/08/06 09:55:07;;;;;;;;;;;;;;;23.47;29.62;96550.44;4964352;28;802;-77
2023/08/06 09:57:32;;;;;;;;;;;;;;;23.22;30.05;96544.13;4964830;28;959;-76
2023/08/06 09:59:58;;;;;;;;;;;;;;;23.16;30.30;96537.59;4981934;28;813;-77
2023/08/06 10:02:23;;;;;;;;;;;;;;;23.17;30.19;96527.78;4964358;28;899;-77
2023/08/06 10:04:49;;;;;;;;;;;;;;;23.20;30.20;96529.63;4964363;28;975;-77
2023/08/06 10:07:15;;;;;;;;;;;;;;;23.23;30.21;96528.66;4964541;28;910;-77
2023/08/06 10:09:40;;;;;;;;;;;;;;;23.27;30.30;96531.31;4924552;29;1914;-77
2023/08/06 10:12:06;;;;;;;;;;;;;;;23.36;30.07;96529.13;4940683;29;1103;-77
2023/08/06 10:14:32;;;;;;;;;;;;;;;23.30;30.25;96536.75;4940688;29;992;-76
2023/08/06 10:16:59;;;;;;;;;;;;;;;23.34;30.00;96531.66;4924668;29;1014;-76
2023/08/06 10:19:24;;;;;;;;;;;;;;;23.20;30.24;96531.69;4940604;29;1126;-77
2023/08/06 10:22:11;;;;;;;;;;;;;;;22.99;30.68;96522.31;4924597;29;1050;-77
2023/08/06 10:24:53;;;;;;;;;;;;;;;22.87;31.19;96510.75;4902500;29;1011;-76
2023/08/06 10:27:22;;;;;;;;;;;;;;;22.80;31.07;96511.16;4886713;29;1082;-76
2023/08/06 10:29:48;;;;;;;;;;;;;;;23.06;30.75;96493.56;4871291;29;1902;-76
2023/08/06 10:32:14;;;;;;;;;;;;;;;23.16;30.81;96497.84;4827853;29;1065;-76
2023/08/06 10:35:03;;;;;;;;;;;;;;;23.23;30.50;96491.00;4813261;29;956;-77
2023/08/06 10:37:35;;;;;;;;;;;;;;;23.34;30.30;96474.91;4828278;29;969;-77
2023/08/06 10:40:00;;;;;;;;;;;;;;;23.27;30.58;96481.00;4817453;29;926;-76
2023/08/06 10:42:29;;;;;;;;;;;;;;;23.41;30.05;96479.38;4830900;29;949;-76
2023/08/06 10:45:30;;;;;;;;;;;;;;;23.37;30.25;96478.81;4846492;29;1047;-76
2023/08/06 10:47:57;;;;;;;;;;;;;;;23.26;30.56;96479.44;4773706;30;964;-77
2023/08/06 10:50:23;;;;;;;;;;;;;;;23.14;30.66;96483.38;4744689;30;1911;-77
2023/08/06 10:52:48;;;;;;;;;;;;;;;22.98;31.24;96486.72;4758930;30;904;-77
2023/08/06 10:55:14;;;;;;;;;;;;;;;23.11;30.84;96470.19;4759147;30;964;-76
2023/08/06 10:57:40;;;;;;;;;;;;;;;23.33;30.39;96470.50;4758963;30;876;-77
2023/08/06 11:00:06;;;;;;;;;;;;;;;23.05;30.75;96480.63;4773144;30;943;-77
2023/08/06 11:02:35;;;;;;;;;;;;;;;22.97;30.94;96474.59;4808734;29;1059;-76
2023/08/06 11:05:07;;;;;;;;;;;;;;;23.13;30.60;96454.22;4846325;29;786;-76
2023/08/06 11:07:33;;;;;;;;;;;;;;;23.35;30.59;96464.34;4846272;29;926;-76
2023/08/06 11:10:02;;;;;;;;;;;;;;;23.27;30.70;96452.63;4857790;29;1997;-77
2023/08/06 11:12:28;;;;;;;;;;;;;;;23.04;30.84;96450.72;4849121;29;1017;-77
2023/08/06 11:14:54;;;;;;;;;;;;;;;22.99;31.14;96448.56;4864496;29;1139;-76
2023/08/06 11:17:19;;;;;;;;;;;;;;;23.04;30.95;96433.69;4827286;29;1000;-77
2023/08/06 11:19:45;;;;;;;;;;;;;;;23.16;30.96;96440.31;4827667;29;919;-76
2023/08/06 11:22:10;;;;;;;;;;;;;;;23.25;30.77;96443.81;4884918;29;966;-77
2023/08/06 11:24:37;;;;;;;;;;;;;;;23.05;31.14;96455.09;4920594;29;982;-77
2023/08/06 11:27:02;;;;;;;;;;;;;;;23.13;30.82;96456.28;4920222;29;985;-76
2023/08/06 11:29:28;;;;;;;;;;;;;;;23.22;30.96;96450.47;4917873;29;1919;-78
2023/08/06 11:31:54;;;;;;;;;;;;;;;23.46;30.43;96441.00;4920680;29;1121;-77
2023/08/06 11:34:19;;;;;;;;;;;;;;;23.20;30.79;96430.31;4917775;29;993;-77
2023/08/06 11:36:45;;;;;;;;;;;;;;;23.32;30.40;96425.59;4920062;29;967;-77
2023/08/06 11:39:10;;;;;;;;;;;;;;;23.29;30.78;96416.00;4920351;29;985;-76
2023/08/06 11:41:38;;;;;;;;;;;;;;;22.93;31.17;96405.16;4920105;29;972;-76
2023/08/06 11:44:03;;;;;;;;;;;;;;;23.17;30.79;96436.22;4904715;29;1244;-77
2023/08/06 11:46:29;;;;;;;;;;;;;;;23.09;30.69;96453.63;4917798;29;1604;-77
2023/08/06 11:48:58;;;;;;;;;;;;;;;23.12;30.84;96468.91;4954148;29;1969;-77
2023/08/06 11:51:25;;;;;;;;;;;;;;;23.14;30.96;96495.50;4943227;29;900;-77
2023/08/06 11:53:59;;;;;;;;;;;;;;;23.18;30.60;96529.34;4923017;29;910;-77
2023/08/06 11:56:28;;;;;;;;;;;;;;;23.14;30.83;96608.22;4938974;29;1077;-77
2023/08/06 11:58:56;;;;;;;;;;;;;;;23.11;30.81;96595.00;4938523;29;1020;-76
2023/08/06 12:01:22;;;;;;;;;;;;;;;23.12;30.78;96642.75;4938950;29;927;-76
2023/08/06 12:03:48;;;;;;;;;;;;;;;23.11;30.59;96621.34;4938813;29;926;-76
2023/08/06 12:06:13;;;;;;;;;;;;;;;23.08;30.42;96613.00;4938536;29;981;-76
2023/08/06 12:08:39;;;;;;;;;;;;;;;23.02;30.33;96610.06;4938303;29;1922;-77
2023/08/06 12:11:04;;;;;;;;;;;;;;;23.26;29.65;96615.66;4938790;29;900;-77
2023/08/06 12:13:30;;;;;;;;;;;;;;;23.08;29.99;96593.16;4938252;29;1058;-76
2023/08/06 12:15:57;;;;;;;;;;;;;;;23.06;29.75;96595.69;4922687;29;1539;-77
2023/08/06 12:18:22;;;;;;;;;;;;;;;22.99;29.89;96587.56;4922573;29;1351;-77
2023/08/06 12:20:48;;;;;;;;;;;;;;;22.88;29.88;96574.75;4938006;29;1045;-77
2023/08/06 12:23:15;;;;;;;;;;;;;;;23.11;29.59;96552.47;4938212;29;1362;-76
2023/08/06 12:25:41;;;;;;;;;;;;;;;23.25;29.11;96551.63;4938579;29;880;-77
2023/08/06 12:28:07;;;;;;;;;;;;;;;23.00;29.75;96557.91;4922382;29;1240;-77
2023/08/06 12:30:33;;;;;;;;;;;;;;;23.16;29.29;96559.47;4937823;29;1911;-77
2023/08/06 12:32:58;;;;;;;;;;;;;;;23.08;29.69;96576.13;4922355;29;1098;-76
2023/08/06 12:35:25;;;;;;;;;;;;;;;23.00;29.76;96589.94;4918869;29;1242;-77
2023/08/06 12:37:54;;;;;;;;;;;;;;;23.13;29.47;96583.94;4919179;29;866;-78
2023/08/06 12:40:20;;;;;;;;;;;;;;;23.07;29.64;96572.50;4919100;29;922;-76
2023/08/06 12:42:46;;;;;;;;;;;;;;;23.12;29.48;96571.03;4919038;29;936;-77
2023/08/06 12:45:11;;;;;;;;;;;;;;;23.08;30.06;96547.75;4922494;29;1216;-76
2023/08/06 12:47:37;;;;;;;;;;;;;;;23.08;30.15;96547.75;4922011;29;988;-76
2023/08/06 12:50:03;;;;;;;;;;;;;;;22.88;30.68;96543.53;4937824;29;1914;-78
2023/08/06 12:52:29;;;;;;;;;;;;;;;23.12;30.08;96559.69;4921995;29;900;-76
2023/08/06 12:54:54;;;;;;;;;;;;;;;23.17;30.04;96567.50;4922150;29;1149;-76